Time;durP1;ratioP1;P1;durP2;ratioP2;P2;SDS_P1;SDS_P2;PMS_P1;PMS_P2;Temp;Humidity;BMP_temperature;BMP_pressure;BME280_temperature;BME280_humidity;BME280_pressure;Samples;Min_cycle;Max_cycle;Signal;HPM_P1;HPM_P2
2021/05/23 00:02:08;;;;;;;0.50;0.50;;;;;;;-144.31;100.00;58022.63;5071882;28;20092;-79
2021/05/23 00:04:36;;;;;;;0.55;0.55;;;;;;;-144.31;100.00;58022.63;5066633;28;20041;-79
2021/05/23 00:07:04;;;;;;;0.60;0.60;;;;;;;-144.31;100.00;58022.63;5075170;28;20040;-80
2021/05/23 00:09:30;;;;;;;0.50;0.50;;;;;;;-144.31;100.00;58022.63;5068629;28;20388;-79
2021/05/23 00:11:57;;;;;;;0.57;0.57;;;;;;;-144.31;100.00;58022.63;5065215;28;20053;-78
2021/05/23 00:14:23;;;;;;;;;;;;;;;-144.31;100.00;58022.63;5064928;28;20041;-80
2021/05/23 00:16:50;;;;;;;0.60;0.60;;;;;;;-144.31;100.00;58022.63;5071506;28;19923;-79
2021/05/23 00:19:18;;;;;;;0.50;0.50;;;;;;;-144.31;100.00;58022.63;5060394;28;20076;-80
2021/05/23 00:21:43;;;;;;;0.60;0.60;;;;;;;-144.31;100.00;58022.63;5061703;28;20040;-79
2021/05/23 00:24:09;;;;;;;0.70;0.70;;;;;;;-144.31;100.00;58022.63;5063756;28;20216;-78
2021/05/23 00:26:35;;;;;;;0.60;0.60;;;;;;;-144.31;100.00;58022.63;5069018;28;20064;-79
2021/05/23 00:29:03;;;;;;;0.55;0.55;;;;;;;-144.31;100.00;58022.63;5072228;28;20048;-78
2021/05/23 00:31:29;;;;;;;0.50;0.50;;;;;;;-144.31;100.00;58022.63;5061156;28;20126;-79
2021/05/23 00:33:54;;;;;;;0.50;0.50;;;;;;;-144.31;100.00;58022.63;5062915;28;20044;-79
2021/05/23 00:36:20;;;;;;;0.57;0.57;;;;;;;-144.31;100.00;58022.63;5067676;28;20040;-79
2021/05/23 00:38:49;;;;;;;0.60;0.60;;;;;;;-144.31;100.00;58022.63;5069882;28;20045;-78
2021/05/23 00:41:14;;;;;;;0.50;0.50;;;;;;;-144.31;100.00;58022.63;5070815;28;20127;-78
2021/05/23 00:43:40;;;;;;;0.60;0.60;;;;;;;-144.31;100.00;58022.63;5066975;28;20504;-79
2021/05/23 00:46:05;;;;;;;0.50;0.50;;;;;;;-144.31;100.00;58022.63;5055950;28;20056;-79
2021/05/23 00:48:34;;;;;;;0.60;0.60;;;;;;;-144.31;100.00;58022.63;5056762;28;20088;-79
2021/05/23 00:50:59;;;;;;;0.60;0.60;;;;;;;-144.31;100.00;58022.63;5065018;28;20045;-79
2021/05/23 00:53:25;;;;;;;0.60;0.60;;;;;;;-144.31;100.00;58022.63;5064376;28;20106;-78
2021/05/23 00:55:51;;;;;;;0.60;0.60;;;;;;;-144.31;100.00;58022.63;5058050;28;20067;-79
2021/05/23 00:58:18;;;;;;;0.52;0.52;;;;;;;-144.31;100.00;58022.63;5056053;28;20090;-78
2021/05/23 01:00:44;;;;;;;0.60;0.60;;;;;;;-144.31;100.00;58022.63;5053970;28;20049;-79
2021/05/23 01:03:25;;;;;;;0.60;0.60;;;;;;;-144.31;100.00;58022.63;5056882;28;20052;-78
2021/05/23 01:05:52;;;;;;;0.50;0.50;;;;;;;-144.31;100.00;58022.63;5061946;28;20036;-78
2021/05/23 01:08:17;;;;;;;0.55;0.55;;;;;;;-144.31;100.00;58022.63;5058660;28;20095;-79
2021/05/23 01:11:15;;;;;;;0.50;0.50;;;;;;;-144.31;100.00;58022.63;5059143;28;20080;-79
2021/05/23 01:14:12;;;;;;;0.50;0.50;;;;;;;-144.31;100.00;58022.63;5011190;28;20048;-79
2021/05/23 01:16:55;;;;;;;;;;;;;;;-144.31;100.00;58022.63;5060659;28;20596;-78
2021/05/23 01:19:39;;;;;;;0.50;0.50;;;;;;;-144.31;100.00;58022.63;5058457;28;20004;-78
2021/05/23 01:22:22;;;;;;;0.60;0.60;;;;;;;-144.31;100.00;58022.63;5061852;28;20055;-78
2021/05/23 01:25:19;;;;;;;0.50;0.50;;;;;;;-144.31;100.00;58022.63;5066311;28;20049;-77
2021/05/23 01:27:48;;;;;;;0.60;0.60;;;;;;;-144.31;100.00;58022.63;5036551;28;20142;-77
2021/05/23 01:30:35;;;;;;;0.60;0.60;;;;;;;-144.31;100.00;58022.63;5061778;28;20041;-78
2021/05/23 01:33:02;;;;;;;;;;;;;;;-144.31;100.00;58022.63;5056341;28;20131;-78
2021/05/23 01:35:33;;;;;;;0.52;0.52;;;;;;;-144.31;100.00;58022.63;5062998;28;19916;-78
2021/05/23 01:38:00;;;;;;;0.57;0.57;;;;;;;-144.31;100.00;58022.63;5066735;28;20079;-79
2021/05/23 01:40:28;;;;;;;0.60;0.60;;;;;;;-144.31;100.00;58022.63;5067440;28;20076;-78
2021/05/23 01:42:54;;;;;;;0.57;0.57;;;;;;;-144.31;100.00;58022.63;5074147;28;20048;-78
2021/05/23 01:45:20;;;;;;;0.60;0.60;;;;;;;-144.31;100.00;58022.63;5055623;28;20043;-79
2021/05/23 01:47:46;;;;;;;0.55;0.55;;;;;;;-144.31;100.00;58022.63;5054472;28;20762;-78
2021/05/23 01:50:11;;;;;;;0.60;0.60;;;;;;;-144.31;100.00;58022.63;5060375;28;20040;-78
2021/05/23 01:52:47;;;;;;;0.60;0.60;;;;;;;-144.31;100.00;58022.63;5057159;28;20048;-80
2021/05/23 01:55:13;;;;;;;0.60;0.60;;;;;;;-144.31;100.00;58022.63;5067420;28;20032;-78
2021/05/23 01:57:38;;;;;;;0.50;0.50;;;;;;;-144.31;100.00;58022.63;5071437;28;20049;-80
2021/05/23 02:00:04;;;;;;;0.50;0.50;;;;;;;-144.31;100.00;58022.63;5063137;28;20060;-79
2021/05/23 02:02:29;;;;;;;0.80;0.80;;;;;;;-144.31;100.00;58022.63;5066468;28;20048;-79
2021/05/23 02:04:57;;;;;;;0.70;0.70;;;;;;;-144.31;100.00;58022.63;5067237;28;20426;-79
2021/05/23 02:07:22;;;;;;;0.70;0.70;;;;;;;-144.31;100.00;58022.63;5064911;28;20048;-79
2021/05/23 02:09:55;;;;;;;0.60;0.60;;;;;;;-144.31;100.00;58022.63;5067150;28;20047;-78
2021/05/23 02:12:20;;;;;;;0.60;0.60;;;;;;;-144.31;100.00;58022.63;5066894;28;20032;-79
2021/05/23 02:14:46;;;;;;;0.63;0.63;;;;;;;-144.31;100.00;58022.63;5065733;28;20116;-79
2021/05/23 02:17:11;;;;;;;0.57;0.57;;;;;;;-144.31;100.00;58022.63;5064827;28;20062;-79
2021/05/23 02:19:39;;;;;;;0.60;0.60;;;;;;;-144.31;100.00;58022.63;5068340;28;20131;-79
2021/05/23 02:22:04;;;;;;;0.60;0.60;;;;;;;-144.31;100.00;58022.63;5063034;28;20051;-78
2021/05/23 02:24:29;;;;;;;0.60;0.60;;;;;;;-144.31;100.00;58022.63;5069739;28;20032;-79
2021/05/23 02:26:55;;;;;;;0.60;0.60;;;;;;;-144.31;100.00;58022.63;5070883;28;20041;-78
2021/05/23 02:29:20;;;;;;;0.70;0.70;;;;;;;-144.31;100.00;58022.63;5058476;28;20070;-78
2021/05/23 02:31:45;;;;;;;0.70;0.70;;;;;;;-144.31;100.00;58022.63;5072399;28;20487;-79
2021/05/23 02:34:13;;;;;;;0.60;0.60;;;;;;;-144.31;100.00;58022.63;5065779;28;20064;-78
2021/05/23 02:36:38;;;;;;;;;;;;;;;-144.31;100.00;58022.63;5063673;28;20057;-79
2021/05/23 02:39:06;;;;;;;0.70;0.70;;;;;;;-144.31;100.00;58022.63;5068581;28;20006;-78
2021/05/23 02:41:31;;;;;;;;;;;;;;;-144.31;100.00;58022.63;5063675;28;20496;-78
2021/05/23 02:43:57;;;;;;;0.77;0.77;;;;;;;-144.31;100.00;58022.63;5063083;28;19951;-78
2021/05/23 02:46:26;;;;;;;0.60;0.60;;;;;;;-144.31;100.00;58022.63;5069404;28;20050;-79
2021/05/23 02:48:52;;;;;;;0.60;0.60;;;;;;;-144.31;100.00;58022.63;5074451;28;20412;-78
2021/05/23 02:51:21;;;;;;;0.60;0.60;;;;;;;-144.31;100.00;58022.63;5072025;28;20044;-78
2021/05/23 02:53:46;;;;;;;0.60;0.60;;;;;;;-144.31;100.00;58022.63;5072845;28;20044;-79
2021/05/23 02:56:12;;;;;;;0.60;0.60;;;;;;;-144.31;100.00;58022.63;5073958;28;20067;-79
2021/05/23 02:58:37;;;;;;;0.60;0.60;;;;;;;-144.31;100.00;58022.63;5070233;28;20155;-78
2021/05/23 03:01:05;;;;;;;0.70;0.70;;;;;;;-144.31;100.00;58022.63;5075551;28;20045;-78
2021/05/23 03:03:30;;;;;;;0.70;0.70;;;;;;;-144.31;100.00;58022.63;5058766;28;20524;-78
2021/05/23 03:05:55;;;;;;;0.70;0.70;;;;;;;-144.31;100.00;58022.63;5064617;28;20470;-78
2021/05/23 03:08:21;;;;;;;0.70;0.70;;;;;;;-144.31;100.00;58022.63;5062353;28;20128;-78
2021/05/23 03:10:51;;;;;;;0.63;0.63;;;;;;;-144.31;100.00;58022.63;5068193;28;20462;-79
2021/05/23 03:13:17;;;;;;;0.70;0.70;;;;;;;-144.31;100.00;58022.63;5065344;28;20071;-78
2021/05/23 03:15:42;;;;;;;0.60;0.60;;;;;;;-144.31;100.00;58022.63;5061534;28;20072;-78
2021/05/23 03:18:10;;;;;;;0.60;0.60;;;;;;;-144.31;100.00;58022.63;5069149;28;20076;-78
2021/05/23 03:20:39;;;;;;;0.80;0.80;;;;;;;-144.31;100.00;58022.63;5070995;28;20076;-79
2021/05/23 03:23:04;;;;;;;0.60;0.60;;;;;;;-144.31;100.00;58022.63;5073834;28;20185;-78
2021/05/23 03:25:30;;;;;;;0.70;0.70;;;;;;;-144.31;100.00;58022.63;5064165;28;20067;-78
2021/05/23 03:27:57;;;;;;;0.70;0.70;;;;;;;-144.31;100.00;58022.63;5069673;28;20044;-79
2021/05/23 03:30:26;;;;;;;0.70;0.70;;;;;;;-144.31;100.00;58022.63;5065441;28;20060;-78
2021/05/23 03:32:54;;;;;;;0.70;0.70;;;;;;;-144.31;100.00;58022.63;5061878;28;20577;-79
2021/05/23 03:35:20;;;;;;;0.60;0.60;;;;;;;-144.31;100.00;58022.63;5062505;28;20503;-78
2021/05/23 03:37:45;;;;;;;0.60;0.60;;;;;;;-144.31;100.00;58022.63;5057068;28;20115;-77
2021/05/23 03:40:15;;;;;;;0.70;0.70;;;;;;;-144.31;100.00;58022.63;5053635;28;20079;-77
2021/05/23 03:42:40;;;;;;;0.60;0.60;;;;;;;-144.31;100.00;58022.63;5060548;28;20462;-79
2021/05/23 03:45:08;;;;;;;0.70;0.70;;;;;;;-144.31;100.00;58022.63;5063407;28;20805;-77
2021/05/23 03:47:34;;;;;;;0.70;0.70;;;;;;;-144.31;100.00;58022.63;5061878;28;20036;-78
2021/05/23 03:49:59;;;;;;;0.60;0.60;;;;;;;-144.31;100.00;58022.63;5065545;28;20098;-78
2021/05/23 03:52:24;;;;;;;0.63;0.63;;;;;;;-144.31;100.00;58022.63;5072281;28;20052;-79
2021/05/23 03:54:50;;;;;;;0.65;0.65;;;;;;;-144.31;100.00;58022.63;5070171;28;20063;-77
2021/05/23 03:57:15;;;;;;;0.75;0.75;;;;;;;-144.31;100.00;58022.63;5057103;28;20045;-78
2021/05/23 03:59:41;;;;;;;0.60;0.60;;;;;;;-144.31;100.00;58022.63;5058042;28;20072;-78
2021/05/23 04:02:06;;;;;;;0.70;0.70;;;;;;;-144.31;100.00;58022.63;5059100;28;20501;-77
2021/05/23 04:04:48;;;;;;;0.60;0.60;;;;;;;-144.31;100.00;58022.63;5065813;28;20040;-79
2021/05/23 04:07:16;;;;;;;0.73;0.73;;;;;;;-144.31;100.00;58022.63;5063718;28;20132;-78
2021/05/23 04:09:42;;;;;;;0.70;0.70;;;;;;;-144.31;100.00;58022.63;5056567;28;20048;-78
2021/05/23 04:12:08;;;;;;;0.68;0.68;;;;;;;-144.31;100.00;58022.63;5056592;28;20403;-79
2021/05/23 04:14:35;;;;;;;0.70;0.70;;;;;;;-144.31;100.00;58022.63;5067418;28;20131;-78
2021/05/23 04:17:00;;;;;;;0.70;0.70;;;;;;;-144.31;100.00;58022.63;5061901;28;20595;-78
2021/05/23 04:19:25;;;;;;;0.60;0.60;;;;;;;-144.31;100.00;58022.63;5059326;28;20131;-78
2021/05/23 04:21:51;;;;;;;0.60;0.60;;;;;;;-144.31;100.00;58022.63;5061900;28;20052;-78
2021/05/23 04:24:16;;;;;;;0.63;0.63;;;;;;;-144.31;100.00;58022.63;5053164;28;20045;-78
2021/05/23 04:26:41;;;;;;;0.60;0.60;;;;;;;-144.31;100.00;58022.63;5067921;28;20058;-78
2021/05/23 04:29:07;;;;;;;0.73;0.73;;;;;;;-144.31;100.00;58022.63;5067915;28;20048;-78
2021/05/23 04:31:32;;;;;;;0.60;0.60;;;;;;;-144.31;100.00;58022.63;5070444;28;20522;-78
2021/05/23 04:34:01;;;;;;;0.60;0.60;;;;;;;-144.31;100.00;58022.63;5069802;28;20052;-78
2021/05/23 04:36:26;;;;;;;0.60;0.60;;;;;;;-144.31;100.00;58022.63;5061799;28;20049;-78
2021/05/23 04:38:52;;;;;;;0.50;0.50;;;;;;;-144.31;100.00;58022.63;5059176;28;20037;-79
2021/05/23 04:41:18;;;;;;;0.60;0.60;;;;;;;-144.31;100.00;58022.63;5064290;28;20052;-78
2021/05/23 04:43:43;;;;;;;0.70;0.70;;;;;;;-144.31;100.00;58022.63;5070217;28;20518;-77
2021/05/23 04:46:11;;;;;;;0.60;0.60;;;;;;;-144.31;100.00;58022.63;5060271;28;20094;-78
2021/05/23 04:48:36;;;;;;;0.60;0.60;;;;;;;-144.31;100.00;58022.63;5057669;28;20044;-78
2021/05/23 04:51:02;;;;;;;0.70;0.70;;;;;;;-144.31;100.00;58022.63;5065350;28;20447;-77
2021/05/23 04:53:27;;;;;;;0.70;0.70;;;;;;;-144.31;100.00;58022.63;5058556;28;20041;-78
2021/05/23 04:55:52;;;;;;;0.63;0.63;;;;;;;-144.31;100.00;58022.63;5057832;28;20476;-77
2021/05/23 04:58:18;;;;;;;0.60;0.60;;;;;;;-144.31;100.00;58022.63;5057698;28;20044;-77
2021/05/23 05:00:43;;;;;;;0.60;0.60;;;;;;;-144.31;100.00;58022.63;5054566;28;20098;-77
2021/05/23 05:03:09;;;;;;;0.60;0.60;;;;;;;-144.31;100.00;58022.63;5059637;28;20098;-78
2021/05/23 05:05:34;;;;;;;0.60;0.60;;;;;;;-144.31;100.00;58022.63;5063295;28;20049;-78
2021/05/23 05:08:00;;;;;;;0.65;0.65;;;;;;;-144.31;100.00;58022.63;5060219;28;20039;-78
2021/05/23 05:10:25;;;;;;;0.63;0.63;;;;;;;-144.31;100.00;58022.63;5061890;28;20763;-78
2021/05/23 05:12:51;;;;;;;0.60;0.60;;;;;;;-144.31;100.00;58022.63;5058023;28;20568;-78
2021/05/23 05:15:16;;;;;;;0.60;0.60;;;;;;;-144.31;100.00;58022.63;5068314;28;20045;-78
2021/05/23 05:17:41;;;;;;;0.50;0.50;;;;;;;-144.31;100.00;58022.63;5061666;28;20110;-78
2021/05/23 05:20:08;;;;;;;0.60;0.60;;;;;;;-144.31;100.00;58022.63;5064418;28;20036;-78
2021/05/23 05:22:34;;;;;;;0.50;0.50;;;;;;;-144.31;100.00;58022.63;5072149;28;20040;-78
2021/05/23 05:25:00;;;;;;;0.60;0.60;;;;;;;-144.31;100.00;58022.63;5057682;28;20037;-78
2021/05/23 05:27:26;;;;;;;0.57;0.57;;;;;;;-144.31;100.00;58022.63;5063437;28;20242;-79
2021/05/23 05:29:51;;;;;;;0.60;0.60;;;;;;;-144.31;100.00;58022.63;5063228;28;20033;-78
2021/05/23 05:32:17;;;;;;;0.50;0.50;;;;;;;-144.31;100.00;58022.63;5072656;28;20059;-78
2021/05/23 05:34:43;;;;;;;0.50;0.50;;;;;;;-144.31;100.00;58022.63;5075362;28;20044;-78
2021/05/23 05:37:08;;;;;;;0.60;0.60;;;;;;;-144.31;100.00;58022.63;5066334;28;20041;-78
2021/05/23 05:39:33;;;;;;;0.60;0.60;;;;;;;-144.31;100.00;58022.63;5065812;28;20040;-78
2021/05/23 05:41:59;;;;;;;0.60;0.60;;;;;;;-144.31;100.00;58022.63;5073117;28;20139;-78
2021/05/23 05:44:25;;;;;;;0.50;0.50;;;;;;;-144.31;100.00;58022.63;5062468;28;20036;-78
2021/05/23 05:46:51;;;;;;;0.50;0.50;;;;;;;-144.31;100.00;58022.63;5063162;28;20102;-78
2021/05/23 05:49:17;;;;;;;0.50;0.50;;;;;;;-144.31;100.00;58022.63;5061172;28;20045;-79
2021/05/23 05:51:42;;;;;;;0.50;0.50;;;;;;;-144.31;100.00;58022.63;5068711;28;20044;-78
2021/05/23 05:54:08;;;;;;;0.50;0.50;;;;;;;-144.31;100.00;58022.63;5061749;28;20861;-78
2021/05/23 05:56:33;;;;;;;0.50;0.50;;;;;;;-144.31;100.00;58022.63;5070626;28;20094;-78
2021/05/23 05:58:58;;;;;;;0.50;0.50;;;;;;;-144.31;100.00;58022.63;5070685;28;20044;-78
2021/05/23 06:01:24;;;;;;;0.50;0.50;;;;;;;-144.31;100.00;58022.63;5064401;28;20037;-79
2021/05/23 06:03:49;;;;;;;0.50;0.50;;;;;;;-144.31;100.00;58022.63;5067041;28;20049;-79
2021/05/23 06:06:14;;;;;;;0.50;0.50;;;;;;;-144.31;100.00;58022.63;5065420;28;20047;-78
2021/05/23 06:08:40;;;;;;;0.60;0.60;;;;;;;-144.31;100.00;58022.63;5060857;28;20041;-78
2021/05/23 06:11:07;;;;;;;0.50;0.50;;;;;;;-144.31;100.00;58022.63;5060624;28;20051;-78
2021/05/23 06:13:33;;;;;;;0.60;0.60;;;;;;;-144.31;100.00;58022.63;5074723;28;20048;-78
2021/05/23 06:15:58;;;;;;;0.60;0.60;;;;;;;-144.31;100.00;58022.63;5065636;28;20033;-79
2021/05/23 06:18:27;;;;;;;0.50;0.50;;;;;;;-144.31;100.00;58022.63;5065692;28;20062;-78
2021/05/23 06:20:53;;;;;;;0.60;0.60;;;;;;;-144.31;100.00;58022.63;5069027;28;20116;-79
2021/05/23 06:23:20;;;;;;;0.57;0.57;;;;;;;-144.31;100.00;58022.63;5061067;28;20033;-80
2021/05/23 06:25:45;;;;;;;0.60;0.60;;;;;;;-144.31;100.00;58022.63;5067994;28;20060;-80
2021/05/23 06:28:11;;;;;;;0.65;0.65;;;;;;;-144.31;100.00;58022.63;5058458;28;20409;-80
2021/05/23 06:30:36;;;;;;;0.70;0.70;;;;;;;-144.31;100.00;58022.63;5068422;28;20488;-78
2021/05/23 06:33:02;;;;;;;0.50;0.50;;;;;;;-144.31;100.00;58022.63;5062987;28;20076;-78
2021/05/23 06:35:27;;;;;;;0.60;0.60;;;;;;;-144.31;100.00;58022.63;5062520;28;20420;-79
2021/05/23 06:37:53;;;;;;;0.60;0.60;;;;;;;-144.31;100.00;58022.63;5057944;28;20085;-79
2021/05/23 06:40:18;;;;;;;0.57;0.57;;;;;;;-144.31;100.00;58022.63;5057355;28;20040;-78
2021/05/23 06:42:44;;;;;;;0.60;0.60;;;;;;;-144.31;100.00;58022.63;5066493;28;20045;-76
2021/05/23 06:45:12;;;;;;;0.50;0.50;;;;;;;-144.31;100.00;58022.63;5069727;28;20047;-77
2021/05/23 06:47:37;;;;;;;0.50;0.50;;;;;;;-144.31;100.00;58022.63;5059308;28;20045;-77
2021/05/23 06:50:04;;;;;;;0.57;0.57;;;;;;;-144.31;100.00;58022.63;5056385;28;20083;-78
2021/05/23 06:52:30;;;;;;;0.50;0.50;;;;;;;-144.31;100.00;58022.63;5067950;28;20483;-78
2021/05/23 06:54:55;;;;;;;0.55;0.55;;;;;;;-144.31;100.00;58022.63;5057776;28;20546;-78
2021/05/23 06:57:20;;;;;;;0.57;0.57;;;;;;;-144.31;100.00;58022.63;5056340;28;20128;-78
2021/05/23 06:59:46;;;;;;;0.50;0.50;;;;;;;-144.31;100.00;58022.63;5067367;28;20106;-77
2021/05/23 07:02:11;;;;;;;0.52;0.52;;;;;;;-144.31;100.00;58022.63;5061409;28;20058;-77
2021/05/23 07:04:37;;;;;;;0.40;0.40;;;;;;;-144.31;100.00;58022.63;5063864;28;20511;-78
2021/05/23 07:07:02;;;;;;;0.50;0.50;;;;;;;-144.31;100.00;58022.63;5060502;28;20044;-78
2021/05/23 07:09:28;;;;;;;0.50;0.50;;;;;;;-144.31;100.00;58022.63;5061596;28;20037;-79
2021/05/23 07:11:53;;;;;;;0.50;0.50;;;;;;;-144.31;100.00;58022.63;5065013;28;20041;-79
2021/05/23 07:14:18;;;;;;;0.40;0.40;;;;;;;-144.31;100.00;58022.63;5055952;28;20049;-79
2021/05/23 07:16:44;;;;;;;0.40;0.40;;;;;;;-144.31;100.00;58022.63;5064352;28;20037;-79
2021/05/23 07:19:09;;;;;;;0.50;0.50;;;;;;;-144.31;100.00;58022.63;5061253;28;20048;-79
2021/05/23 07:21:35;;;;;;;0.40;0.40;;;;;;;-144.31;100.00;58022.63;5057992;28;20123;-79
2021/05/23 07:24:00;;;;;;;0.50;0.50;;;;;;;-144.31;100.00;58022.63;5067930;28;20037;-80
2021/05/23 07:26:25;;;;;;;0.60;0.60;;;;;;;-144.31;100.00;58022.63;5079642;28;20048;-79
2021/05/23 07:28:52;;;;;;;0.50;0.50;;;;;;;-144.31;100.00;58022.63;5052547;28;20045;-79
2021/05/23 07:31:18;;;;;;;0.50;0.50;;;;;;;-144.31;100.00;58022.63;5054119;28;20052;-78
2021/05/23 07:33:43;;;;;;;0.55;0.55;;;;;;;-144.31;100.00;58022.63;5058667;28;20048;-79
2021/05/23 07:36:10;;;;;;;0.43;0.43;;;;;;;-144.31;100.00;58022.63;5063486;28;20082;-79
2021/05/23 07:38:35;;;;;;;0.40;0.40;;;;;;;-144.31;100.00;58022.63;5066767;28;20040;-79
2021/05/23 07:41:01;;;;;;;0.50;0.50;;;;;;;-144.31;100.00;58022.63;5066947;28;20055;-79
2021/05/23 07:43:26;;;;;;;0.40;0.40;;;;;;;-144.31;100.00;58022.63;5071739;28;20504;-80
2021/05/23 07:45:52;;;;;;;0.50;0.50;;;;;;;-144.31;100.00;58022.63;5073145;28;20494;-79
2021/05/23 07:48:18;;;;;;;0.40;0.40;;;;;;;-144.31;100.00;58022.63;5064208;28;20056;-80
2021/05/23 07:50:44;;;;;;;0.47;0.47;;;;;;;-144.31;100.00;58022.63;5074626;28;20048;-79
2021/05/23 07:53:09;;;;;;;0.55;0.55;;;;;;;-144.31;100.00;58022.63;5071667;28;20040;-79
2021/05/23 07:55:34;;;;;;;0.50;0.50;;;;;;;-144.31;100.00;58022.63;5070649;28;20040;-79
2021/05/23 07:58:00;;;;;;;0.50;0.50;;;;;;;-144.31;100.00;58022.63;5074869;28;20032;-80
2021/05/23 08:00:26;;;;;;;0.45;0.45;;;;;;;-144.31;100.00;58022.63;5074577;28;20460;-79
2021/05/23 08:02:54;;;;;;;0.40;0.40;;;;;;;-144.31;100.00;58022.63;5063316;28;20044;-79
2021/05/23 08:05:20;;;;;;;0.30;0.30;;;;;;;-144.31;100.00;58022.63;5067062;28;20048;-79
2021/05/23 08:07:45;;;;;;;0.40;0.40;;;;;;;-144.31;100.00;58022.63;5058901;28;20044;-79
2021/05/23 08:10:11;;;;;;;0.40;0.40;;;;;;;-144.31;100.00;58022.63;5057092;28;20478;-77
2021/05/23 08:12:37;;;;;;;0.50;0.50;;;;;;;-144.31;100.00;58022.63;5052606;28;20052;-79
2021/05/23 08:15:03;;;;;;;0.47;0.47;;;;;;;-144.31;100.00;58022.63;5048337;28;20048;-78
2021/05/23 08:17:29;;;;;;;0.68;0.68;;;;;;;-144.31;100.00;58022.63;5053174;28;20792;-78
2021/05/23 08:19:56;;;;;;;0.50;0.50;;;;;;;-144.31;100.00;58022.63;5026402;28;20072;-80
2021/05/23 08:22:22;;;;;;;0.60;0.60;;;;;;;-144.31;100.00;58022.63;5062258;28;20039;-80
2021/05/23 08:24:47;;;;;;;0.60;0.60;;;;;;;-144.31;100.00;58022.63;5056924;28;20044;-80
2021/05/23 08:27:13;;;;;;;0.70;0.70;;;;;;;-144.31;100.00;58022.63;5064007;28;20071;-78
2021/05/23 08:29:38;;;;;;;0.70;0.70;;;;;;;-144.31;100.00;58022.63;5065923;28;20411;-80
2021/05/23 08:32:04;;;;;;;0.70;0.70;;;;;;;-144.31;100.00;58022.63;5063891;28;20129;-77
2021/05/23 08:34:30;;;;;;;0.70;0.70;;;;;;;-144.31;100.00;58022.63;5064747;28;20040;-77
2021/05/23 08:36:55;;;;;;;0.70;0.70;;;;;;;-144.31;100.00;58022.63;5062050;28;20711;-78
2021/05/23 08:39:21;;;;;;;0.70;0.70;;;;;;;-144.31;100.00;58022.63;5068351;28;20036;-82
2021/05/23 08:41:51;;;;;;;0.70;0.70;;;;;;;-144.31;100.00;58022.63;5071167;28;20183;-79
2021/05/23 08:44:23;;;;;;;0.60;0.60;;;;;;;-144.31;100.00;58022.63;5062851;28;20040;-78
2021/05/23 08:46:53;;;;;;;0.70;0.70;;;;;;;-144.31;100.00;58022.63;5089295;28;20291;-79
2021/05/23 08:49:24;;;;;;;0.70;0.70;;;;;;;-144.31;100.00;58022.63;5068376;28;20044;-78
2021/05/23 08:51:51;;;;;;;0.50;0.50;;;;;;;-144.31;100.00;58022.63;5059883;28;20045;-77
2021/05/23 08:54:17;;;;;;;0.60;0.60;;;;;;;-144.31;100.00;58022.63;5068311;28;20060;-78
2021/05/23 08:56:47;;;;;;;0.60;0.60;;;;;;;-144.31;100.00;58022.63;5081054;28;20037;-78
2021/05/23 08:59:12;;;;;;;0.60;0.60;;;;;;;-144.31;100.00;58022.63;5061803;28;20536;-77
2021/05/23 09:01:39;;;;;;;0.60;0.60;;;;;;;-144.31;100.00;58022.63;5068437;28;20051;-77
2021/05/23 09:04:07;;;;;;;0.60;0.60;;;;;;;-144.31;100.00;58022.63;5046615;28;20036;-79
2021/05/23 09:06:35;;;;;;;0.60;0.60;;;;;;;-144.31;100.00;58022.63;5047956;28;20231;-78
2021/05/23 09:09:06;;;;;;;0.55;0.55;;;;;;;-144.31;100.00;58022.63;5041765;28;20045;-77
2021/05/23 09:11:32;;;;;;;0.60;0.60;;;;;;;-144.31;100.00;58022.63;5056958;28;20044;-79
2021/05/23 09:13:58;;;;;;;0.60;0.60;;;;;;;-144.31;100.00;58022.63;5067086;28;20095;-79
2021/05/23 09:16:24;;;;;;;0.60;0.60;;;;;;;-144.31;100.00;58022.63;5040764;28;20079;-79
2021/05/23 09:18:55;;;;;;;0.60;0.60;;;;;;;-144.31;100.00;58022.63;5064030;28;20037;-80
2021/05/23 09:21:27;;;;;;;0.50;0.50;;;;;;;-144.31;100.00;58022.63;5045414;28;20099;-79
2021/05/23 09:23:57;;;;;;;0.50;0.50;;;;;;;-144.31;100.00;58022.63;5065266;28;20064;-81
2021/05/23 09:26:25;;;;;;;0.50;0.50;;;;;;;-144.31;100.00;58022.63;5054320;28;20071;-82
2021/05/23 09:28:54;;;;;;;0.50;0.50;;;;;;;-144.31;100.00;58022.63;5074448;28;20088;-80
2021/05/23 09:31:24;;;;;;;0.60;0.60;;;;;;;-144.31;100.00;58022.63;5043182;28;20053;-80
2021/05/23 09:33:52;;;;;;;0.40;0.40;;;;;;;-144.31;100.00;58022.63;5051075;28;20032;-77
2021/05/23 09:36:20;;;;;;;0.45;0.45;;;;;;;-144.31;100.00;58022.63;5071155;28;20045;-78
2021/05/23 09:38:53;;;;;;;0.40;0.40;;;;;;;-144.31;100.00;58022.63;5061405;28;20139;-79
2021/05/23 09:41:26;;;;;;;0.40;0.40;;;;;;;-144.31;100.00;58022.63;5055419;28;20045;-77
2021/05/23 09:44:14;;;;;;;0.40;0.40;;;;;;;-144.31;100.00;58022.63;5054699;28;20075;-77
2021/05/23 09:46:51;;;;;;;0.40;0.40;;;;;;;-144.31;100.00;58022.63;5067088;28;20104;-77
2021/05/23 09:49:17;;;;;;;0.50;0.50;;;;;;;-144.31;100.00;58022.63;5060344;28;20522;-76
2021/05/23 09:51:53;;;;;;;0.40;0.40;;;;;;;-144.31;100.00;58022.63;5037765;28;20068;-77
2021/05/23 09:54:18;;;;;;;0.43;0.43;;;;;;;-144.31;100.00;58022.63;5031456;28;20048;-75
2021/05/23 09:56:44;;;;;;;0.30;0.30;;;;;;;-144.31;100.00;58022.63;5050036;28;20041;-75
2021/05/23 09:59:26;;;;;;;0.50;0.50;;;;;;;-144.31;100.00;58022.63;5046386;28;20037;-77
2021/05/23 10:01:52;;;;;;;0.45;0.45;;;;;;;-144.31;100.00;58022.63;5052961;28;20040;-77
2021/05/23 10:04:24;;;;;;;0.50;0.50;;;;;;;-144.31;100.00;58022.63;5054884;28;20042;-78
2021/05/23 10:07:08;;;;;;;0.32;0.32;;;;;;;-144.31;100.00;58022.63;5065791;28;20071;-77
2021/05/23 10:09:35;;;;;;;0.40;0.40;;;;;;;-144.31;100.00;58022.63;5054421;28;20140;-79
2021/05/23 10:12:01;;;;;;;0.40;0.40;;;;;;;-144.31;100.00;58022.63;5055461;28;20184;-76
2021/05/23 10:14:30;;;;;;;0.30;0.30;;;;;;;-144.31;100.00;58022.63;5057639;28;20156;-76
2021/05/23 10:16:56;;;;;;;0.30;0.30;;;;;;;-144.31;100.00;58022.63;5048148;28;20109;-77
2021/05/23 10:19:24;;;;;;;0.30;0.30;;;;;;;-144.31;100.00;58022.63;5041040;28;20036;-78
2021/05/23 10:21:54;;;;;;;0.40;0.40;;;;;;;-144.31;100.00;58022.63;5028367;28;20048;-77
2021/05/23 10:24:52;;;;;;;0.40;0.40;;;;;;;-144.31;100.00;58022.63;5034586;28;20041;-78
2021/05/23 10:27:22;;;;;;;0.35;0.35;;;;;;;-144.31;100.00;58022.63;5040823;28;20041;-76
2021/05/23 10:29:58;;;;;;;0.30;0.30;;;;;;;-144.31;100.00;58022.63;5042102;28;20599;-76
2021/05/23 10:32:29;;;;;;;0.30;0.30;;;;;;;-144.31;100.00;58022.63;5048561;28;20450;-77
2021/05/23 10:34:57;;;;;;;0.40;0.40;;;;;;;-144.31;100.00;58022.63;5063795;28;20075;-76
2021/05/23 10:37:28;;;;;;;0.30;0.30;;;;;;;-144.31;100.00;58022.63;5049446;28;20116;-77
2021/05/23 10:39:54;;;;;;;0.50;0.50;;;;;;;-144.31;100.00;58022.63;5061901;28;20083;-77
2021/05/23 10:42:23;;;;;;;0.40;0.40;;;;;;;-144.31;100.00;58022.63;5065418;28;20074;-78
2021/05/23 10:44:51;;;;;;;0.40;0.40;;;;;;;-144.31;100.00;58022.63;5062710;28;20053;-78
2021/05/23 10:47:24;;;;;;;0.50;0.50;;;;;;;-144.31;100.00;58022.63;5055614;28;20679;-78
2021/05/23 10:49:52;;;;;;;0.40;0.40;;;;;;;-144.31;100.00;58022.63;5053576;28;20051;-78
2021/05/23 10:52:22;;;;;;;0.50;0.50;;;;;;;-144.31;100.00;58022.63;5060453;28;20408;-81
2021/05/23 10:55:15;;;;;;;0.50;0.50;;;;;;;-144.31;100.00;58022.63;5063296;28;20880;-76
2021/05/23 10:57:42;;;;;;;0.60;0.60;;;;;;;-144.31;100.00;58022.63;5039951;28;20894;-76
2021/05/23 11:00:10;;;;;;;0.52;0.52;;;;;;;-144.31;100.00;58022.63;5059352;28;20037;-76
2021/05/23 11:02:37;;;;;;;0.50;0.50;;;;;;;-144.31;100.00;58022.63;5047810;28;20677;-78
2021/05/23 11:05:21;;;;;;;0.50;0.50;;;;;;;-144.31;100.00;58022.63;5045708;28;20393;-78
2021/05/23 11:07:56;;;;;;;0.40;0.40;;;;;;;-144.31;100.00;58022.63;5062405;28;20106;-78
2021/05/23 11:10:24;;;;;;;0.40;0.40;;;;;;;-144.31;100.00;58022.63;5076182;28;20067;-79
2021/05/23 11:12:52;;;;;;;0.50;0.50;;;;;;;-144.31;100.00;58022.63;5050450;28;20412;-81
2021/05/23 11:15:18;;;;;;;;;;;;;;;-144.31;100.00;58022.63;5049069;28;20093;-79